Latest Coastal Weather Observations for Montague Island

IDN60701

Issued at 1:35 pm EST Saturday 23 August 2014 (issued every 10 minutes, with the page automatically refreshed every 10 minutes)

About coastal observations | Map of coastal stations | Coastal observations for NSW | Marine services | Other Formats
Station Details ID: 069017 Name: MONTAGUE ISLAND LIGHTHOUSE Lat: -36.25 Lon: 150.23 Height: 52.0 m
Data from the previous 72 hours. | See also: Recent months at Montague Island
Date/Time
EST
Temp

°C
Wind Pressure Rain
since 9am
mm
Weather Cloud Vis
km
Sea
Height
m
Swell
Dir
 
Speed
knots
Gust
knots
hPa Trend Height
m
Period
s
Dir
23/01:30pm 15.8 E 5 6 1029.9 - 0.0 - - - - - - -
23/01:00pm 15.2 E 4 5 1030.2 - 0.0 - - - - - - -
23/12:30pm 15.1 E 4 6 1030.4 - 0.0 - - - - - - -
23/12:00pm 15.2 SE 4 6 1031.0 - 0.0 - - - - - - -
23/11:30am 15.7 WSW 2 4 1031.3 - 0.0 - - - - - - -
23/11:00am 15.3 WSW 4 6 1031.7 - 0.0 - - - - - - -
23/10:30am 14.7 WSW 4 6 1031.7 - 0.0 - - - - - - -
23/10:00am 14.8 WSW 5 7 1031.9 - 0.0 - - - - - - -
23/09:30am 14.3 WSW 6 7 1031.9 - 0.0 - - - - - - -
23/09:00am 12.9 SSW 5 6 1032.2 - 5.6 - - - - - - -
23/08:30am 12.5 SW 6 7 1032.0 - 5.6 - - - - - - -
23/08:00am 11.8 SW 5 7 1031.8 - 5.6 - - - - - - -
23/07:30am 11.6 SW 4 6 1031.6 - 5.6 - - - - - - -
23/07:00am 11.5 SW 4 6 1031.3 - 5.6 - - - - - - -
23/06:30am 11.3 W 5 6 1030.7 - 5.6 - - - - - - -
23/06:00am 11.8 W 6 7 1030.7 - 5.6 - - - - - - -
23/05:30am 12.1 WSW 7 9 1030.4 - 5.6 - - - - - - -
23/05:00am 11.8 SW 8 10 1030.3 - 5.6 - - - - - - -
23/04:30am 12.2 SW 8 11 1030.1 - 5.6 - - - - - - -
23/04:00am 12.3 S 6 8 1030.3 - 5.6 - - - - - - -
23/03:30am 12.4 SSW 5 7 1030.2 - 5.6 - - - - - - -
23/03:00am 12.2 SSW 4 6 1030.3 - 5.6 - - - - - - -
23/02:30am 12.4 SW 4 5 1030.4 - 5.6 - - - - - - -
23/02:00am 12.4 SW 6 8 1030.8 - 5.6 - - - - - - -
23/01:30am 12.4 SW 7 8 1031.0 - 5.2 - - - - - - -
23/01:00am 12.5 SW 6 8 1031.2 - 5.2 - - - - - - -
23/12:30am 12.3 SW 7 9 1031.1 - 5.0 - - - - - - -
23/12:00am 12.6 WSW 6 8 1031.5 - 5.0 Rain - - - - - -
 
Date/Time
EST
Temp

°C
Wind Pressure Rain
since 9am
mm
Weather Cloud Vis
km
Sea
Height
m
Swell
Dir
 
Speed
knots
Gust
knots
hPa Trend Height
m
Period
s
Dir
22/11:30pm 12.8 WSW 7 9 1031.3 - 4.0 - - - - - - -
22/11:00pm 12.8 W 7 9 1031.5 - 3.6 - - - - - - -
22/10:30pm 13.0 N 4 5 1031.9 - 3.4 - - - - - - -
22/10:00pm 12.8 ENE 9 13 1031.9 - 3.4 - - - - - - -
22/09:30pm 14.1 ENE 5 10 1031.9 - 1.8 - - - - - - -
22/09:00pm 13.6 SE 3 8 1032.0 - 1.8 Rain - - - - - -
22/08:30pm 14.1 E 5 6 1031.8 - 0.2 - - - - - - -
22/08:00pm 14.1 E 5 7 1031.8 - 0.2 - - - - - - -
22/07:30pm 14.1 E 6 8 1031.7 - 0.2 - - - - - - -
22/07:00pm 14.3 E 8 10 1031.6 - 0.2 - - - - - - -
22/06:30pm 14.1 E 9 11 1031.3 - 0.2 - - - - - - -
22/06:00pm 14.2 E 9 11 1031.2 - 0.2 - - - - - - -
22/05:30pm 14.4 ENE 5 6 1031.0 - 0.2 - - - - - - -
22/05:00pm 14.3 E 6 8 1031.0 - 0.2 - - - - - - -
22/04:30pm 14.2 ENE 12 14 1030.7 - 0.2 - - - - - - -
22/04:00pm 14.3 ENE 7 9 1030.5 - 0.2 - - - - - - -
22/03:30pm 14.2 ENE 8 10 1030.4 - 0.2 - - - - - - -
22/03:00pm 15.1 ENE 12 15 1030.6 - 0.0 - - - - - - -
22/02:30pm 15.0 SE 7 9 1030.7 - 0.0 - - - - - - -
22/02:00pm 15.0 ESE 7 8 1030.9 - 0.0 - - - - - - -
22/01:30pm 14.9 SSE 8 10 1031.1 - 0.0 - - - - - - -
22/01:00pm 15.5 S 8 10 1031.5 - 0.0 - - - - - - -
22/12:30pm 15.2 S 7 9 1031.7 - 0.0 - - - - - - -
22/12:00pm 15.6 SSW 7 9 1032.2 - 0.0 - - - - - - -
22/11:30am 15.5 SSW 9 11 1032.6 - 0.0 - - - - - - -
22/11:00am 15.1 SSW 8 10 1032.9 - 0.0 - - - - - - -
22/10:30am 14.5 SSW 8 10 1033.0 - 0.0 - - - - - - -
22/10:00am 14.4 SSW 9 11 1033.0 - 0.0 - - - - - - -
22/09:30am 13.4 SSW 6 8 1033.2 - 0.0 - - - - - - -
22/09:00am 13.0 SSW 8 11 1033.1 - 6.4 - - - - - - -
22/08:30am 13.0 SSW 7 9 1032.9 - 6.4 - - - - - - -
22/08:00am 13.2 SW 7 8 1032.7 - 6.4 - - - - - - -
22/07:30am 12.5 WSW 10 11 1032.3 - 6.4 - - - - - - -
22/07:00am 11.8 SW 10 12 1032.1 - 6.4 - - - - - - -
22/06:30am 11.6 SW 11 13 1031.6 - 6.4 - - - - - - -
22/06:00am 11.7 SW 8 9 1031.5 - 6.4 - - - - - - -
22/05:30am 11.8 SW 6 9 1031.2 - 6.4 - - - - - - -
22/05:00am 11.8 WSW 5 6 1031.2 - 6.4 - - - - - - -
22/04:30am 11.9 E 1 2 1031.1 - 6.4 - - - - - - -
22/04:00am 11.9 WSW 3 6 1031.0 - 6.0 - - - - - - -
22/03:30am 12.0 W 6 9 1030.9 - 5.6 - - - - - - -
22/03:00am 11.9 WSW 8 11 1031.0 - 5.2 Recent precip. - - - - - -
22/02:30am 12.1 SW 11 13 1031.1 - 3.8 - - - - - - -
22/02:00am 12.0 SW 8 10 1031.3 - 3.6 - - - - - - -
22/01:30am 11.9 SW 6 8 1031.4 - 3.6 - - - - - - -
22/01:00am 12.3 SW 9 11 1031.4 - 1.4 - - - - - - -
22/12:30am 12.4 SW 9 12 1031.4 - 1.4 - - - - - - -
22/12:00am 12.5 SSW 9 12 1031.7 - 1.4 - - - - - - -
 
Date/Time
EST
Temp

°C
Wind Pressure Rain
since 9am
mm
Weather Cloud Vis
km
Sea
Height
m
Swell
Dir
 
Speed
knots
Gust
knots
hPa Trend Height
m
Period
s
Dir
21/11:30pm 12.7 SW 7 8 1031.7 - 1.4 - - - - - - -
21/11:00pm 12.5 WSW 8 9 1031.8 - 1.4 - - - - - - -
21/10:30pm 12.9 SSW 4 8 1031.6 - 1.4 - - - - - - -
21/10:00pm 13.6 ESE 8 10 1031.7 - 1.4 - - - - - - -
21/09:30pm 13.9 ESE 9 11 1031.6 - 1.4 - - - - - - -
21/09:00pm 13.9 ESE 8 10 1031.6 - 1.4 - - - - - - -
21/08:30pm 13.9 ESE 8 10 1031.4 - 1.4 - - - - - - -
21/08:00pm 13.6 ESE 9 10 1031.2 - 1.4 - - - - - - -
21/07:30pm 13.7 ESE 10 12 1031.0 - 1.4 - - - - - - -
21/07:00pm 13.7 ESE 13 15 1030.7 - 1.4 - - - - - - -
21/06:30pm 13.0 SSE 12 16 1030.3 - 1.2 - - - - - - -
21/06:18pm 13.0 SE 17 23 1030.2 - 0.0 - - - - - - -
21/06:00pm 13.8 S 10 13 1030.2 - 0.0 - - - - - - -
21/05:30pm 13.7 S 11 13 1029.9 - 0.0 - - - - - - -
21/05:00pm 13.7 S 12 15 1029.6 - 0.0 - - - - - - -
21/04:30pm 14.0 S 11 14 1029.3 - 0.0 - - - - - - -
21/04:00pm 14.4 S 10 12 1029.1 - 0.0 - - - - - - -
21/03:30pm 14.6 S 10 12 1029.0 - 0.0 - - - - - - -
21/03:00pm 15.0 SSW 12 13 1028.9 - 0.0 - - - - - - -
21/02:30pm 14.9 SSW 11 14 1029.1 - 0.0 - - - - - - -
21/02:00pm 15.3 SSW 10 13 1029.3 - 0.0 - - - - - - -
21/01:30pm 14.4 SSW 10 14 1029.4 - 0.0 - - - - - - -
21/01:00pm 14.5 S 7 9 1029.7 - 0.0 - - - - - - -
21/12:30pm 13.9 SW 12 17 1029.7 - 0.0 - - - - - - -
21/12:00pm 13.2 SSW 14 17 1030.3 - 0.0 - - - - - - -
21/11:30am 12.8 SW 12 17 1030.4 - 0.0 - - - - - - -
21/11:00am 12.4 SW 15 19 1030.5 - 0.0 - - - - - - -
21/10:30am 12.3 SW 14 17 1030.5 - 0.0 - - - - - - -
21/10:00am 11.9 SW 14 16 1030.7 - 0.0 - - - - - - -
21/09:30am 12.1 SW 15 18 1030.4 - 0.0 - - - - - - -
21/09:00am 12.2 SW 16 20 1030.4 - 0.0 - - - - - - -
21/08:30am 11.8 SW 16 19 1030.2 - 0.0 - - - - - - -
21/08:00am 11.8 SW 15 18 1030.0 - 0.0 - - - - - - -
21/07:30am 11.5 SW 16 19 1029.6 - 0.0 - - - - - - -
21/07:00am 10.9 SW 14 19 1029.5 - 0.0 - - - - - - -
21/06:30am 11.3 SSW 13 17 1029.2 - 0.0 - - - - - - -
21/06:00am 11.7 SSW 14 17 1028.8 - 0.0 - - - - - - -
21/05:30am 11.9 SW 14 18 1028.5 - 0.0 - - - - - - -
21/05:00am 12.0 SW 15 19 1028.2 - 0.0 - - - - - - -
21/04:30am 12.0 SW 15 19 1028.1 - 0.0 - - - - - - -
21/04:00am 12.1 SW 15 20 1028.1 - 0.0 - - - - - - -
21/03:30am 12.1 SW 16 19 1027.7 - 0.0 - - - - - - -
21/03:00am 12.0 SW 15 18 1027.8 - 0.0 - - - - - - -
21/02:30am 11.7 SW 14 17 1027.8 - 0.0 - - - - - - -
21/02:00am 11.6 SW 15 19 1027.8 - 0.0 - - - - - - -
21/01:30am 11.5 SW 13 16 1027.9 - 0.0 - - - - - - -
21/01:00am 11.5 SW 13 16 1028.1 - 0.0 - - - - - - -
21/12:30am 11.5 SW 13 16 1028.1 - 0.0 - - - - - - -
21/12:00am 11.7 SSW 13 16 1028.1 - 0.0 - - - - - - -
 
Date/Time
EST
Temp

°C
Wind Pressure Rain
since 9am
mm
Weather Cloud Vis
km
Sea
Height
m
Swell
Dir
 
Speed
knots
Gust
knots
hPa Trend Height
m
Period
s
Dir
20/11:30pm 11.4 SSW 14 17 1028.0 - 0.0 - - - - - - -
20/11:00pm 11.5 SW 15 19 1027.8 - 0.0 - - - - - - -
20/10:30pm 11.4 SW 15 17 1027.9 - 0.0 - - - - - - -
20/10:00pm 11.9 SW 13 17 1027.9 - 0.0 - - - - - - -
20/09:30pm 12.4 SW 12 15 1027.9 - 0.0 - - - - - - -
20/09:00pm 13.0 S 14 18 1027.8 - 0.0 - - - - - - -
20/08:30pm 13.3 S 14 17 1027.7 - 0.0 - - - - - - -
20/08:00pm 13.4 S 14 18 1027.3 - 0.0 - - - - - - -
20/07:30pm 13.0 S 13 16 1027.1 - 0.0 - - - - - - -
20/07:00pm 13.0 S 13 17 1026.9 - 0.0 - - - - - - -
20/06:30pm 13.1 S 12 15 1026.6 - 0.0 - - - - - - -
20/06:00pm 13.0 S 12 16 1026.3 - 0.0 - - - - - - -
20/05:30pm 13.3 S 10 14 1026.1 - 0.0 - - - - - - -
20/05:00pm 13.4 S 11 14 1025.8 - 0.0 - - - - - - -
20/04:30pm 13.6 S 11 15 1025.5 - 0.0 - - - - - - -
20/04:00pm 13.8 S 15 18 1025.3 - 0.0 - - - - - - -
20/03:30pm 14.1 S 14 17 1025.1 - 0.0 - - - - - - -
20/03:00pm 14.5 S 14 18 1024.9 - 0.0 - - - - - - -
20/02:30pm 14.6 S 16 19 1024.7 - 0.0 - - - - - - -
20/02:00pm 14.9 S 17 22 1024.7 - 0.0 - - - - - - -

Other Formats:

Comma delimited format used in spreadsheet applications
http://www.bom.gov.au/fwo/IDN60701/IDN60701.94939.axf

JavaScript Object Notation format (JSON) in row-major order
http://www.bom.gov.au/fwo/IDN60701/IDN60701.94939.json